Time;durP1;ratioP1;P1;durP2;ratioP2;P2;SDS_P1;SDS_P2;PMS_P1;PMS_P2;Temp;Humidity;BMP_temperature;BMP_pressure;BME280_temperature;BME280_humidity;BME280_pressure;Samples;Min_cycle;Max_cycle;Signal;HPM_P1;HPM_P2
2022/06/03 00:01:45;;;;;;;1.90;1.80;;;18.60;92.70;;;;;;4962031;28;20023;-82
2022/06/03 00:04:27;;;;;;;1.80;1.70;;;18.60;92.40;;;;;;4966454;28;20026;-82
2022/06/03 00:07:29;;;;;;;2.13;1.65;;;18.60;92.40;;;;;;4972934;28;20040;-81
2022/06/03 00:10:25;;;;;;;2.13;1.70;;;18.50;92.20;;;;;;4965327;28;20093;-82
2022/06/03 00:13:22;;;;;;;2.30;1.55;;;18.40;92.40;;;;;;4965337;28;20022;-82
2022/06/03 00:16:27;;;;;;;2.22;1.80;;;18.40;92.50;;;;;;4969477;28;20031;-82
2022/06/03 00:19:32;;;;;;;2.10;1.90;;;18.40;92.20;;;;;;4960714;28;20090;-82
2022/06/03 00:22:02;;;;;;;1.70;1.60;;;18.40;91.80;;;;;;4967391;28;20019;-82
2022/06/03 00:25:06;;;;;;;4.05;1.83;;;18.30;91.70;;;;;;4970080;28;20037;-82
2022/06/03 00:28:11;;;;;;;1.88;1.45;;;18.40;91.80;;;;;;4964725;28;20457;-82
2022/06/03 00:30:53;;;;;;;1.65;1.55;;;18.40;91.70;;;;;;4966992;28;20464;-82
2022/06/03 00:33:45;;;;;;;2.45;1.50;;;18.30;91.60;;;;;;4970292;28;20042;-82
2022/06/03 00:36:47;;;;;;;2.17;1.80;;;18.30;91.30;;;;;;4968053;28;20039;-82
2022/06/03 00:39:34;;;;;;;2.88;1.67;;;18.20;91.60;;;;;;4971835;28;20030;-82
2022/06/03 00:42:27;;;;;;;3.00;1.95;;;18.20;91.20;;;;;;4976347;28;20281;-82
2022/06/03 00:45:36;;;;;;;1.67;1.58;;;18.20;91.20;;;;;;4953470;28;20027;-82
2022/06/03 00:48:18;;;;;;;1.60;1.50;;;18.10;91.20;;;;;;4972067;28;20027;-82
2022/06/03 00:54:12;;;;;;;3.40;1.70;;;18.10;91.60;;;;;;4967653;28;20078;-82
2022/06/03 00:57:00;;;;;;;2.47;1.63;;;18.00;91.50;;;;;;4973022;28;20031;-82
2022/06/03 01:00:15;;;;;;;4.30;1.77;;;17.90;91.50;;;;;;4972469;28;20018;-82
2022/06/03 01:03:24;;;;;;;3.22;1.75;;;17.90;91.80;;;;;;4974756;28;20035;-82
2022/06/03 01:06:17;;;;;;;1.63;1.52;;;17.90;91.80;;;;;;4969857;28;20042;-81
2022/06/03 01:08:49;;;;;;;2.15;1.80;;;17.80;92.00;;;;;;4978666;28;20031;-82
2022/06/03 01:11:36;;;;;;;2.00;1.70;;;17.80;91.90;;;;;;4970451;28;20046;-82
2022/06/03 01:14:23;;;;;;;3.97;1.55;;;17.70;91.80;;;;;;4966073;28;20038;-82
2022/06/03 01:17:22;;;;;;;5.05;1.77;;;17.70;91.90;;;;;;4973594;28;20039;-82
2022/06/03 01:20:25;;;;;;;2.95;1.80;;;17.70;92.10;;;;;;4977919;28;20027;-82
2022/06/03 01:23:37;;;;;;;4.38;1.88;;;17.60;91.80;;;;;;4970742;28;20023;-82
2022/06/03 01:29:39;;;;;;;1.70;1.60;;;17.50;92.00;;;;;;4970976;28;20527;-82
2022/06/03 01:32:40;;;;;;;2.58;1.65;;;17.50;92.20;;;;;;4971485;28;20074;-82
2022/06/03 01:38:30;;;;;;;1.95;1.70;;;17.50;92.00;;;;;;4970563;28;20030;-82
2022/06/03 01:41:32;;;;;;;2.72;1.67;;;17.40;91.90;;;;;;4971005;28;20487;-82
2022/06/03 01:44:42;;;;;;;2.00;1.90;;;17.40;91.60;;;;;;4967922;28;20094;-82
2022/06/03 01:47:44;;;;;;;4.03;1.58;;;17.40;91.70;;;;;;4971702;28;20024;-82
2022/06/03 01:50:47;;;;;;;2.35;1.50;;;17.40;91.90;;;;;;4969234;28;20661;-79
2022/06/03 01:53:47;;;;;;;2.05;1.65;;;17.30;91.80;;;;;;4964279;28;20114;-80
2022/06/03 01:56:47;;;;;;;4.00;1.98;;;17.30;91.90;;;;;;4966450;28;20030;-79
2022/06/03 01:59:35;;;;;;;5.07;1.75;;;17.30;91.90;;;;;;4970009;28;20057;-80
2022/06/03 02:02:41;;;;;;;1.85;1.75;;;17.30;92.20;;;;;;4967441;28;20061;-80
2022/06/03 02:05:36;;;;;;;2.80;1.63;;;17.20;92.40;;;;;;4967055;28;20019;-79
2022/06/03 02:08:27;;;;;;;2.00;1.60;;;17.20;92.50;;;;;;4968414;28;20018;-80
2022/06/03 02:11:21;;;;;;;2.03;1.52;;;17.20;92.40;;;;;;4970440;28;20038;-79
2022/06/03 02:14:17;;;;;;;1.60;1.50;;;17.20;92.50;;;;;;4965555;28;20173;-79
2022/06/03 02:17:12;;;;;;;2.80;1.73;;;17.10;92.40;;;;;;4968360;28;20027;-80
2022/06/03 02:20:17;;;;;;;3.90;1.80;;;17.10;92.50;;;;;;4966762;28;20019;-79
2022/06/03 02:23:08;;;;;;;3.15;1.50;;;17.10;92.30;;;;;;4968753;28;20087;-79
2022/06/03 02:25:59;;;;;;;1.23;1.15;;;17.00;92.30;;;;;;4968259;28;20094;-79
2022/06/03 02:32:13;;;;;;;1.50;1.40;;;16.90;92.50;;;;;;4973704;28;20539;-79
2022/06/03 02:35:18;;;;;;;1.63;1.52;;;16.90;92.30;;;;;;4967872;28;20023;-79
2022/06/03 02:37:45;;;;;;;1.90;1.50;;;16.90;92.30;;;;;;4967151;28;20078;-79
2022/06/03 02:40:43;;;;;;;1.65;1.42;;;16.80;91.90;;;;;;4966583;28;20103;-80
2022/06/03 02:43:48;;;;;;;1.95;1.50;;;16.80;92.30;;;;;;4961174;28;20031;-80
2022/06/03 02:46:39;;;;;;;1.80;1.70;;;16.80;92.50;;;;;;4957496;28;20054;-79
2022/06/03 02:49:33;;;;;;;4.00;1.55;;;16.80;92.30;;;;;;4963976;28;20011;-80
2022/06/03 02:52:33;;;;;;;2.22;1.83;;;16.70;92.10;;;;;;4963078;28;20030;-80
2022/06/03 02:55:18;;;;;;;1.70;1.60;;;16.70;92.50;;;;;;4960587;28;20085;-79
2022/06/03 02:58:14;;;;;;;1.80;1.42;;;16.70;92.50;;;;;;4965077;28;20035;-79
2022/06/03 03:01:01;;;;;;;2.85;1.60;;;16.80;92.50;;;;;;4962608;28;20057;-80
2022/06/03 03:03:47;;;;;;;;;;;16.80;92.40;;;;;;4960459;28;20094;-79
2022/06/03 03:06:50;;;;;;;1.63;1.52;;;16.70;92.20;;;;;;4957575;28;19945;-80
2022/06/03 03:09:49;;;;;;;1.67;1.58;;;16.80;92.30;;;;;;4961335;28;20388;-79
2022/06/03 03:12:51;;;;;;;2.42;1.70;;;16.80;92.30;;;;;;4961642;28;20035;-79
2022/06/03 03:15:59;;;;;;;3.10;1.58;;;16.70;92.30;;;;;;4958049;28;20038;-79
2022/06/03 03:19:01;;;;;;;1.80;1.70;;;16.70;92.30;;;;;;4957119;28;20034;-79
2022/06/03 03:21:38;;;;;;;4.40;1.77;;;16.70;92.30;;;;;;4960115;28;20027;-80
2022/06/03 03:24:25;;;;;;;1.52;1.42;;;16.70;92.30;;;;;;4956161;28;20041;-79
2022/06/03 03:27:03;;;;;;;4.13;1.75;;;16.70;92.20;;;;;;4958668;28;20643;-79
2022/06/03 03:30:08;;;;;;;2.05;1.63;;;16.70;92.30;;;;;;4957585;28;20053;-79
2022/06/03 03:33:00;;;;;;;3.33;1.70;;;16.70;92.60;;;;;;4894296;29;20069;-79
2022/06/03 03:35:44;;;;;;;1.83;1.63;;;16.70;92.60;;;;;;4907423;29;20575;-79
2022/06/03 03:38:40;;;;;;;1.92;1.70;;;16.80;92.50;;;;;;4909049;29;20087;-79
2022/06/03 03:41:44;;;;;;;1.77;1.58;;;16.70;92.50;;;;;;4908978;29;20726;-79
2022/06/03 03:44:31;;;;;;;4.30;1.85;;;16.70;92.50;;;;;;4908825;29;20039;-79
2022/06/03 03:46:59;;;;;;;2.25;1.77;;;16.70;92.70;;;;;;4898104;29;20031;-79
2022/06/03 03:49:49;;;;;;;1.60;1.50;;;16.70;92.50;;;;;;4946267;28;20117;-79
2022/06/03 03:52:42;;;;;;;1.95;1.70;;;16.70;92.80;;;;;;4959578;28;20350;-81
2022/06/03 03:55:50;;;;;;;2.55;1.95;;;16.70;93.00;;;;;;4958241;28;20058;-83
2022/06/03 03:58:54;;;;;;;2.42;1.65;;;16.70;92.90;;;;;;4960663;28;20039;-82
2022/06/03 04:01:46;;;;;;;3.42;1.63;;;16.80;92.70;;;;;;4957817;28;20031;-82
2022/06/03 04:04:34;;;;;;;2.05;1.80;;;16.80;93.00;;;;;;4959633;28;20093;-82
2022/06/03 04:07:27;;;;;;;2.90;1.85;;;16.90;93.10;;;;;;4963889;28;20031;-82
2022/06/03 04:10:30;;;;;;;2.10;1.80;;;17.00;93.10;;;;;;4962080;28;20189;-82
2022/06/03 04:13:32;;;;;;;2.00;1.80;;;17.00;92.90;;;;;;4960458;28;20713;-81
2022/06/03 04:16:27;;;;;;;2.75;1.92;;;17.20;93.10;;;;;;4957525;28;20126;-80
2022/06/03 04:19:13;;;;;;;1.65;1.55;;;17.20;92.80;;;;;;4951195;28;20034;-80
2022/06/03 04:21:59;;;;;;;3.78;1.80;;;17.30;93.00;;;;;;4953234;28;20380;-81
2022/06/03 04:24:45;;;;;;;2.60;1.80;;;17.40;92.40;;;;;;4950199;28;20086;-81
2022/06/03 04:27:19;;;;;;;2.55;2.08;;;17.50;92.60;;;;;;4953506;28;20023;-81
2022/06/03 04:30:33;;;;;;;2.92;1.80;;;17.70;92.30;;;;;;4953485;28;20075;-82
2022/06/03 04:33:18;;;;;;;1.98;1.77;;;17.80;92.20;;;;;;4896574;29;20041;-82
2022/06/03 04:36:25;;;;;;;1.83;1.65;;;18.00;92.30;;;;;;4912259;29;20028;-81
2022/06/03 04:39:22;;;;;;;2.03;1.83;;;18.00;92.00;;;;;;4912352;29;20028;-81
2022/06/03 04:42:25;;;;;;;2.70;1.77;;;17.90;92.20;;;;;;4907449;29;20107;-82
2022/06/03 04:45:30;;;;;;;1.75;1.65;;;18.10;91.60;;;;;;4961318;28;20105;-82
2022/06/03 04:48:33;;;;;;;3.35;1.60;;;18.30;91.70;;;;;;4953401;28;20034;-79
2022/06/03 04:51:37;;;;;;;2.20;1.98;;;18.50;91.50;;;;;;4952416;28;20053;-79
2022/06/03 04:54:02;;;;;;;2.92;2.45;;;18.60;91.90;;;;;;4953755;28;20034;-79
2022/06/03 04:56:31;;;;;;;3.47;2.47;;;18.70;91.30;;;;;;4965178;28;20019;-75
2022/06/03 04:59:46;;;;;;;4.13;2.38;;;18.90;91.10;;;;;;4953676;28;20098;-81
2022/06/03 05:02:49;;;;;;;3.85;3.00;;;19.00;90.80;;;;;;4965426;28;20111;-82
2022/06/03 05:05:51;;;;;;;3.95;2.85;;;19.10;92.90;;;;;;4949937;28;20019;-80
2022/06/03 05:08:49;;;;;;;3.10;2.80;;;19.20;93.20;;;;;;4943740;28;20078;-80
2022/06/03 05:11:33;;;;;;;4.30;3.15;;;19.30;91.10;;;;;;4940545;28;20025;-77
2022/06/03 05:14:38;;;;;;;4.28;3.00;;;19.30;90.90;;;;;;4938315;28;20042;-76
2022/06/03 05:17:13;;;;;;;4.63;3.13;;;19.20;90.70;;;;;;4943765;28;20031;-77
2022/06/03 05:20:15;;;;;;;2.78;2.53;;;19.50;91.50;;;;;;4947137;28;21387;-77
2022/06/03 05:23:09;;;;;;;3.53;2.97;;;19.50;89.70;;;;;;4942895;28;20065;-72
2022/06/03 05:26:14;;;;;;;4.35;2.90;;;19.60;89.00;;;;;;4946951;28;20061;-78
2022/06/03 05:29:08;;;;;;;4.05;2.78;;;19.80;89.30;;;;;;4945232;28;20094;-77
2022/06/03 05:32:10;;;;;;;3.40;2.88;;;19.70;86.40;;;;;;4954082;28;20106;-77
2022/06/03 05:34:57;;;;;;;3.47;3.08;;;19.90;86.20;;;;;;4948643;28;20027;-77
2022/06/03 05:37:48;;;;;;;5.18;3.10;;;19.90;87.70;;;;;;4937768;28;20595;-77
2022/06/03 05:40:43;;;;;;;3.75;3.03;;;20.10;85.70;;;;;;4945273;28;20461;-77
2022/06/03 05:43:34;;;;;;;3.97;2.80;;;20.30;85.30;;;;;;4945023;28;20162;-80
2022/06/03 05:46:04;;;;;;;6.60;2.85;;;20.50;84.80;;;;;;4949686;28;20023;-77
2022/06/03 05:49:25;;;;;;;4.45;3.63;;;21.10;82.80;;;;;;4952727;28;20031;-77
2022/06/03 05:52:38;;;;;;;6.63;3.55;;;22.20;78.60;;;;;;4886988;29;20038;-77
2022/06/03 05:55:20;;;;;;;5.82;2.80;;;23.40;73.90;;;;;;4927268;29;20027;-78
2022/06/03 05:58:09;;;;;;;2.17;1.98;;;25.00;70.30;;;;;;4948535;28;20035;-78
2022/06/03 06:01:04;;;;;;;3.30;2.00;;;26.90;65.50;;;;;;4948911;28;20073;-78
2022/06/03 06:03:49;;;;;;;5.30;2.50;;;28.70;59.30;;;;;;4943390;28;20019;-77
2022/06/03 06:06:47;;;;;;;5.00;2.80;;;28.60;56.20;;;;;;4944241;28;20157;-77
2022/06/03 06:09:43;;;;;;;4.70;3.10;;;27.40;57.60;;;;;;4940796;28;20124;-77
2022/06/03 06:12:38;;;;;;;5.47;2.70;;;25.10;58.90;;;;;;4945072;28;20940;-77
2022/06/03 06:18:29;;;;;;;7.20;2.85;;;22.60;66.20;;;;;;4945302;28;20043;-77
2022/06/03 06:21:19;;;;;;;7.07;2.47;;;22.10;67.60;;;;;;4941328;28;20027;-77
2022/06/03 06:23:55;;;;;;;2.65;2.42;;;22.50;67.50;;;;;;4949267;28;20555;-77
2022/06/03 06:27:12;;;;;;;4.37;2.80;;;24.00;67.20;;;;;;4935079;28;20027;-77
2022/06/03 06:30:06;;;;;;;4.87;2.83;;;25.00;62.80;;;;;;4939911;28;20188;-77
2022/06/03 06:33:13;;;;;;;3.65;2.80;;;26.50;60.50;;;;;;4947200;28;20019;-77
2022/06/03 06:36:05;;;;;;;4.25;2.80;;;27.50;60.30;;;;;;4917622;28;20127;-77
2022/06/03 06:38:52;;;;;;;6.13;3.38;;;28.80;57.20;;;;;;4941013;28;20027;-77
2022/06/03 06:41:39;;;;;;;6.50;3.28;;;28.50;56.00;;;;;;4944892;28;20496;-79
2022/06/03 06:44:13;;;;;;;5.95;3.58;;;29.40;55.40;;;;;;4947625;28;20027;-77
2022/06/03 06:46:57;;;;;;;6.03;3.00;;;29.70;55.10;;;;;;4940918;28;20625;-77
2022/06/03 06:49:30;;;;;;;2.60;2.40;;;29.90;53.70;;;;;;4940788;28;20034;-77
2022/06/03 06:52:11;;;;;;;5.93;2.85;;;28.50;54.20;;;;;;4941127;28;20085;-79
2022/06/03 06:55:05;;;;;;;3.38;2.20;;;28.40;54.90;;;;;;4939863;28;20015;-81
2022/06/03 06:57:38;;;;;;;7.03;2.30;;;28.90;53.90;;;;;;4940922;28;20102;-82
2022/06/03 07:00:20;;;;;;;4.25;2.22;;;29.60;53.70;;;;;;4949729;28;20027;-80
2022/06/03 07:03:26;;;;;;;4.20;2.38;;;28.80;53.10;;;;;;4955215;28;20459;-79
2022/06/03 07:06:25;;;;;;;4.68;1.95;;;28.10;53.80;;;;;;4945094;28;20019;-80
2022/06/03 07:09:23;;;;;;;2.60;2.03;;;27.70;54.00;;;;;;4948644;28;20015;-79
2022/06/03 07:12:18;;;;;;;4.25;2.20;;;28.00;54.40;;;;;;4933385;28;20110;-81
2022/06/03 07:15:05;;;;;;;3.05;1.85;;;28.90;54.30;;;;;;4947669;28;20750;-81
2022/06/03 07:21:06;;;;;;;2.17;2.03;;;28.30;52.40;;;;;;4945080;28;20050;-80
2022/06/03 07:23:38;;;;;;;5.22;2.08;;;28.40;52.40;;;;;;4940316;28;20029;-80
2022/06/03 07:26:12;;;;;;;2.47;2.10;;;28.10;53.40;;;;;;4951804;28;20536;-80
2022/06/03 07:28:56;;;;;;;2.22;1.75;;;28.10;52.10;;;;;;4944118;28;20523;-82
2022/06/03 07:31:48;;;;;;;2.70;2.03;;;28.40;52.40;;;;;;4935285;28;20035;-81
2022/06/03 07:34:29;;;;;;;2.20;1.90;;;28.50;52.20;;;;;;4949737;28;20050;-81
2022/06/03 07:37:02;;;;;;;2.75;1.80;;;29.50;52.00;;;;;;4944962;28;20027;-77
2022/06/03 07:39:54;;;;;;;2.78;1.90;;;30.40;52.00;;;;;;4944362;28;20045;-80
2022/06/03 07:42:38;;;;;;;3.15;1.73;;;29.90;49.20;;;;;;4940436;28;20025;-80
2022/06/03 07:45:29;;;;;;;4.20;2.00;;;29.10;50.80;;;;;;4953024;28;20353;-81
2022/06/03 07:47:58;;;;;;;8.50;2.25;;;28.50;51.50;;;;;;4941684;28;20439;-80
2022/06/03 07:50:26;;;;;;;4.13;1.95;;;28.50;51.90;;;;;;4941365;28;20031;-78
2022/06/03 07:53:18;;;;;;;3.75;1.73;;;28.90;50.90;;;;;;4939635;28;20034;-80
2022/06/03 07:55:50;;;;;;;2.35;1.48;;;27.80;52.00;;;;;;4940768;28;20036;-80
2022/06/03 07:58:22;;;;;;;3.45;2.05;;;28.40;53.90;;;;;;4946029;28;20564;-77
2022/06/03 08:00:48;;;;;;;3.38;1.90;;;29.60;51.60;;;;;;4944476;28;20051;-82
2022/06/03 08:03:26;;;;;;;4.05;1.85;;;28.70;51.00;;;;;;4941435;28;20074;-80
2022/06/03 08:06:01;;;;;;;2.72;1.75;;;28.10;52.20;;;;;;4948032;28;20042;-81
2022/06/03 08:11:34;;;;;;;3.42;2.10;;;28.50;51.10;;;;;;4947729;28;20282;-78
2022/06/03 08:14:10;;;;;;;3.13;1.90;;;29.10;50.80;;;;;;4940508;28;20050;-81
2022/06/03 08:16:40;;;;;;;2.80;1.83;;;28.90;50.60;;;;;;4943868;28;20385;-82
2022/06/03 08:19:16;;;;;;;10.77;2.03;;;28.60;49.40;;;;;;4948123;28;20024;-80
2022/06/03 08:21:57;;;;;;;4.13;1.80;;;28.20;49.30;;;;;;4938649;28;20027;-80
2022/06/03 08:24:27;;;;;;;1.65;1.55;;;28.80;49.50;;;;;;4942124;28;20290;-79
2022/06/03 08:27:24;;;;;;;1.98;1.77;;;28.20;49.10;;;;;;4948100;28;20023;-81
2022/06/03 08:30:08;;;;;;;4.68;1.90;;;28.10;50.70;;;;;;4940540;28;20041;-79
2022/06/03 08:32:46;;;;;;;2.15;1.55;;;28.40;50.30;;;;;;4939428;28;20035;-80
2022/06/03 08:35:19;;;;;;;4.45;2.05;;;28.00;51.10;;;;;;4946007;28;20027;-81
2022/06/03 08:37:55;;;;;;;1.85;1.70;;;28.60;49.30;;;;;;4949053;28;20107;-82
2022/06/03 08:40:36;;;;;;;2.92;1.80;;;27.80;49.70;;;;;;4942672;28;20027;-79
2022/06/03 08:43:17;;;;;;;2.58;2.00;;;28.00;51.20;;;;;;4952562;28;20496;-84
2022/06/03 08:46:04;;;;;;;1.88;1.70;;;28.60;50.40;;;;;;4935000;28;20035;-73
2022/06/03 08:48:37;;;;;;;3.15;1.92;;;27.80;50.20;;;;;;4935908;28;20031;-71
2022/06/03 08:51:11;;;;;;;9.18;1.90;;;28.00;51.20;;;;;;4940859;28;20492;-73
2022/06/03 08:53:53;;;;;;;2.28;1.80;;;28.80;51.10;;;;;;4934014;28;20031;-73
2022/06/03 08:56:24;;;;;;;5.15;1.90;;;29.40;49.50;;;;;;4937700;28;20086;-75
2022/06/03 08:59:01;;;;;;;5.70;1.48;;;29.10;49.70;;;;;;4945551;28;20665;-76
2022/06/03 09:01:48;;;;;;;2.70;1.90;;;28.90;50.20;;;;;;4940434;28;20126;-73
2022/06/03 09:04:21;;;;;;;2.00;1.80;;;29.50;48.40;;;;;;4953180;28;20713;-73
2022/06/03 09:07:11;;;;;;;2.13;1.52;;;30.20;49.50;;;;;;4944821;28;20031;-70
2022/06/03 09:10:14;;;;;;;2.55;1.60;;;31.20;47.70;;;;;;4941265;28;20457;-72
2022/06/03 09:13:04;;;;;;;3.97;1.80;;;30.90;48.00;;;;;;4945100;28;20773;-71
2022/06/03 09:15:37;;;;;;;2.25;1.65;;;29.50;48.10;;;;;;4936449;28;20028;-74
2022/06/03 09:18:11;;;;;;;1.63;1.42;;;29.30;49.50;;;;;;4944261;28;20037;-73
2022/06/03 09:20:44;;;;;;;3.28;1.85;;;28.50;50.60;;;;;;4943293;28;20383;-72
2022/06/03 09:23:16;;;;;;;1.90;1.80;;;29.00;50.10;;;;;;4943498;28;20110;-72
2022/06/03 09:25:47;;;;;;;1.58;1.45;;;29.60;49.40;;;;;;4942991;28;20461;-72
2022/06/03 09:28:16;;;;;;;3.08;1.85;;;29.80;49.00;;;;;;4940244;28;20015;-72
2022/06/03 09:30:45;;;;;;;2.55;1.38;;;30.00;49.00;;;;;;4942359;28;20055;-73
2022/06/03 09:33:16;;;;;;;3.67;1.50;;;29.10;49.00;;;;;;4943379;28;20629;-74
2022/06/03 09:35:45;;;;;;;10.68;1.95;;;28.40;49.90;;;;;;4949249;28;20035;-73
2022/06/03 09:38:13;;;;;;;1.90;1.70;;;27.90;50.20;;;;;;4946654;28;20037;-73
2022/06/03 09:40:44;;;;;;;2.40;2.15;;;28.20;50.20;;;;;;4937046;28;20030;-74
2022/06/03 09:43:17;;;;;;;1.90;1.73;;;28.60;50.20;;;;;;4942415;28;20027;-74
2022/06/03 09:45:46;;;;;;;5.55;1.67;;;29.30;49.10;;;;;;4944101;28;20122;-74
2022/06/03 09:48:17;;;;;;;5.80;2.00;;;28.50;49.50;;;;;;4943929;28;20035;-74
2022/06/03 09:50:47;;;;;;;1.92;1.52;;;28.50;50.80;;;;;;4942114;28;20023;-72
2022/06/03 09:53:16;;;;;;;2.55;1.80;;;29.30;51.60;;;;;;4944736;28;20118;-71
2022/06/03 09:55:55;;;;;;;5.00;1.80;;;30.00;51.30;;;;;;4941549;28;20074;-73
2022/06/03 09:58:28;;;;;;;3.10;2.00;;;29.80;51.60;;;;;;4950226;28;20020;-74
2022/06/03 10:00:55;;;;;;;2.08;1.60;;;29.60;52.10;;;;;;4953048;28;20026;-74
2022/06/03 10:03:22;;;;;;;3.03;1.90;;;29.40;52.50;;;;;;4942713;28;20047;-73
2022/06/03 10:05:54;;;;;;;3.08;1.95;;;29.20;53.10;;;;;;4935900;28;20035;-75
2022/06/03 10:08:28;;;;;;;3.17;1.80;;;29.00;52.80;;;;;;4948224;28;20039;-74
2022/06/03 10:13:42;;;;;;;1.63;1.52;;;29.10;53.60;;;;;;4942294;28;20113;-73
2022/06/03 10:16:10;;;;;;;2.03;1.70;;;29.70;53.80;;;;;;4944508;28;20039;-74
2022/06/03 10:18:43;;;;;;;4.72;2.08;;;29.30;54.40;;;;;;4937603;28;20019;-73
2022/06/03 10:21:10;;;;;;;2.47;2.20;;;29.90;53.90;;;;;;4949242;28;20031;-72
2022/06/03 10:23:45;;;;;;;6.20;2.10;;;30.20;53.90;;;;;;4936741;28;20023;-74
2022/06/03 10:26:49;;;;;;;2.07;1.80;;;29.50;54.50;;;;;;4947185;28;20097;-74
2022/06/03 10:29:26;;;;;;;1.88;1.77;;;29.50;56.10;;;;;;4950026;28;20274;-71
2022/06/03 10:32:07;;;;;;;3.47;2.10;;;30.10;55.30;;;;;;4945546;28;20065;-73
2022/06/03 10:34:37;;;;;;;2.78;2.10;;;29.40;55.40;;;;;;4933542;28;20028;-75
2022/06/03 10:37:10;;;;;;;2.70;2.45;;;28.70;57.60;;;;;;4938410;28;20033;-72
2022/06/03 10:39:36;;;;;;;2.85;2.10;;;29.20;57.90;;;;;;4939843;28;20034;-73
2022/06/03 10:42:02;;;;;;;6.72;2.35;;;29.60;57.30;;;;;;4942943;28;20535;-73
2022/06/03 10:44:34;;;;;;;2.95;2.05;;;29.70;57.60;;;;;;4944608;28;20098;-73
2022/06/03 10:47:04;;;;;;;6.45;2.50;;;29.20;57.70;;;;;;4944102;28;20087;-72
2022/06/03 10:49:35;;;;;;;4.82;2.30;;;29.40;58.30;;;;;;4941955;28;20031;-74
2022/06/03 11:03:29;;;;;;;3.58;2.33;;;27.30;64.00;;;;;;4946780;28;20384;-74
2022/06/03 11:05:55;;;;;;;3.60;2.25;;;27.30;63.50;;;;;;4937024;28;20019;-73
2022/06/03 11:08:22;;;;;;;;;;;27.20;64.40;;;;;;4951375;28;20034;-78
2022/06/03 11:10:52;;;;;;;3.05;2.25;;;27.30;64.60;;;;;;4947343;28;19910;-79
2022/06/03 11:13:32;;;;;;;2.47;2.28;;;27.30;64.40;;;;;;4948777;28;20085;-78
2022/06/03 11:16:18;;;;;;;3.25;2.13;;;27.20;63.90;;;;;;4948512;28;20090;-79
2022/06/03 11:18:46;;;;;;;4.90;2.17;;;27.20;64.90;;;;;;4939732;28;20035;-79
2022/06/03 11:21:30;;;;;;;4.05;2.25;;;27.20;64.40;;;;;;4941397;28;21576;-78
2022/06/03 11:23:59;;;;;;;5.15;2.50;;;27.00;64.70;;;;;;4942941;28;20148;-78
2022/06/03 11:26:40;;;;;;;2.60;2.40;;;26.90;64.30;;;;;;4945404;28;20042;-78
2022/06/03 11:29:30;;;;;;;5.43;2.22;;;26.90;64.60;;;;;;4947331;28;20019;-78
2022/06/03 11:31:57;;;;;;;3.83;2.05;;;27.00;64.40;;;;;;4942280;28;20051;-77
2022/06/03 11:34:35;;;;;;;3.53;2.20;;;27.00;64.90;;;;;;4947525;28;20026;-78
2022/06/03 11:37:08;;;;;;;3.15;2.63;;;26.90;64.10;;;;;;4939037;28;20028;-77
2022/06/03 11:39:36;;;;;;;3.15;2.20;;;26.70;65.20;;;;;;4943472;28;20033;-77
2022/06/03 11:42:19;;;;;;;3.28;2.10;;;26.80;65.30;;;;;;4954546;28;20023;-78
2022/06/03 11:44:58;;;;;;;4.50;2.40;;;26.90;64.90;;;;;;4941699;28;20027;-77
2022/06/03 11:47:29;;;;;;;2.85;2.20;;;27.00;64.90;;;;;;4936874;28;20773;-77
2022/06/03 11:49:55;;;;;;;3.67;2.25;;;26.90;64.50;;;;;;4944410;28;20830;-77
2022/06/03 11:52:23;;;;;;;2.42;2.08;;;26.70;65.30;;;;;;4943939;28;20057;-78
2022/06/03 11:54:54;;;;;;;4.28;2.25;;;26.60;64.90;;;;;;4940967;28;20062;-77
2022/06/03 11:57:28;;;;;;;3.85;2.40;;;26.60;66.10;;;;;;4941365;28;20030;-77
2022/06/03 12:00:09;;;;;;;4.28;2.60;;;26.90;65.80;;;;;;4942475;28;20019;-77
2022/06/03 12:02:58;;;;;;;2.72;2.17;;;27.10;65.90;;;;;;4938662;28;20775;-79
2022/06/03 12:05:29;;;;;;;2.40;2.20;;;27.20;64.80;;;;;;4949190;28;20499;-78
2022/06/03 12:08:24;;;;;;;2.78;2.30;;;27.20;65.50;;;;;;4941154;28;20031;-77
2022/06/03 12:11:05;;;;;;;3.50;2.25;;;27.30;65.10;;;;;;4945753;28;20038;-78
2022/06/03 12:13:33;;;;;;;2.70;2.15;;;27.00;65.70;;;;;;4939201;28;20030;-78
2022/06/03 12:16:09;;;;;;;4.15;2.67;;;26.80;65.90;;;;;;4949674;28;20023;-77
2022/06/03 12:18:36;;;;;;;2.47;2.28;;;26.70;66.40;;;;;;4937171;28;20042;-78
2022/06/03 12:21:34;;;;;;;5.97;2.40;;;27.00;66.60;;;;;;4945877;28;20712;-77
2022/06/03 12:24:33;;;;;;;4.05;1.95;;;27.00;66.10;;;;;;4943029;28;20082;-78
2022/06/03 12:27:03;;;;;;;2.67;2.42;;;26.90;66.80;;;;;;4946543;28;20049;-77
2022/06/03 12:29:38;;;;;;;3.95;2.50;;;26.80;67.40;;;;;;4936488;28;20038;-77
2022/06/03 12:32:25;;;;;;;2.47;2.28;;;26.90;67.10;;;;;;4943474;28;20100;-77
2022/06/03 12:34:52;;;;;;;3.13;1.95;;;26.90;67.80;;;;;;4938180;28;20026;-77
2022/06/03 12:37:25;;;;;;;2.33;2.13;;;26.90;68.00;;;;;;4946595;28;20031;-77
2022/06/03 12:40:03;;;;;;;2.20;2.00;;;27.00;68.20;;;;;;4941979;28;20051;-77
2022/06/03 12:42:40;;;;;;;7.22;2.38;;;27.10;68.10;;;;;;4938083;28;20102;-77
2022/06/03 12:45:27;;;;;;;3.55;2.45;;;27.20;67.60;;;;;;4943027;28;20026;-77
2022/06/03 12:47:55;;;;;;;4.82;2.33;;;27.10;67.40;;;;;;4941569;28;20050;-77
2022/06/03 12:50:22;;;;;;;2.50;2.25;;;27.20;67.80;;;;;;4945824;28;20187;-77
2022/06/03 12:52:49;;;;;;;3.17;2.10;;;27.30;67.90;;;;;;4947057;28;20024;-75
2022/06/03 12:55:25;;;;;;;3.42;2.40;;;27.30;67.70;;;;;;4948381;28;20016;-76
2022/06/03 12:57:55;;;;;;;2.85;2.45;;;27.20;68.30;;;;;;4939609;28;20027;-75
2022/06/03 13:00:33;;;;;;;2.20;2.00;;;27.30;68.50;;;;;;4941416;28;20022;-75
2022/06/03 13:03:04;;;;;;;4.22;2.38;;;27.30;68.80;;;;;;4943466;28;20082;-75
2022/06/03 13:05:42;;;;;;;4.53;2.22;;;27.10;68.90;;;;;;4929333;28;20557;-75
2022/06/03 13:08:11;;;;;;;2.20;2.00;;;27.00;69.10;;;;;;4940109;28;20227;-75
2022/06/03 13:11:34;;;;;;;2.92;2.17;;;27.10;69.30;;;;;;4938443;28;20023;-75
2022/06/03 13:14:15;;;;;;;2.78;2.08;;;27.30;69.60;;;;;;4897870;29;20046;-74
2022/06/03 13:16:45;;;;;;;2.85;2.40;;;27.50;68.30;;;;;;4884339;29;20036;-74
2022/06/03 13:19:26;;;;;;;2.83;2.30;;;27.30;68.30;;;;;;4940839;28;21229;-75
2022/06/03 13:22:08;;;;;;;3.53;2.58;;;27.20;69.90;;;;;;4946702;28;20497;-74
2022/06/03 13:24:41;;;;;;;3.25;2.40;;;27.20;69.20;;;;;;4933675;28;20095;-74
2022/06/03 13:27:29;;;;;;;5.30;2.70;;;27.20;69.50;;;;;;4948984;28;20486;-73
2022/06/03 13:29:56;;;;;;;5.80;2.38;;;27.30;69.90;;;;;;4940346;28;20781;-73
2022/06/03 13:32:38;;;;;;;2.40;2.20;;;27.20;69.10;;;;;;4943120;28;20019;-76
2022/06/03 13:35:28;;;;;;;3.15;2.42;;;27.10;69.40;;;;;;4939633;28;20031;-76
2022/06/03 13:37:57;;;;;;;3.85;2.10;;;27.20;70.00;;;;;;4934053;28;20055;-76
2022/06/03 13:40:30;;;;;;;2.58;2.22;;;27.20;69.80;;;;;;4948524;28;20023;-75
2022/06/03 13:43:00;;;;;;;3.10;2.30;;;27.30;69.60;;;;;;4950470;28;20131;-76
2022/06/03 13:45:50;;;;;;;2.78;2.17;;;27.30;69.30;;;;;;4947134;28;20468;-77
2022/06/03 13:48:25;;;;;;;4.63;2.40;;;27.40;70.20;;;;;;4947027;28;20074;-77
2022/06/03 13:50:55;;;;;;;2.40;2.20;;;27.60;69.70;;;;;;4938242;28;20027;-77
2022/06/03 13:53:30;;;;;;;3.97;2.75;;;27.60;69.40;;;;;;4945480;28;20523;-77
2022/06/03 13:56:05;;;;;;;2.45;2.22;;;27.60;69.20;;;;;;4944330;28;20034;-78
2022/06/03 13:58:42;;;;;;;3.75;2.55;;;27.40;69.60;;;;;;4948609;28;20499;-77
2022/06/03 14:01:37;;;;;;;;;;;27.40;69.50;;;;;;4950746;28;20536;-78
2022/06/03 14:04:34;;;;;;;2.33;2.13;;;27.30;69.50;;;;;;4927721;28;19950;-77
2022/06/03 14:07:06;;;;;;;3.63;2.58;;;27.30;70.00;;;;;;4939662;28;20480;-77
2022/06/03 14:09:36;;;;;;;3.38;2.45;;;27.40;70.40;;;;;;4935930;28;20122;-78
2022/06/03 14:12:24;;;;;;;4.22;2.42;;;27.50;69.80;;;;;;4951275;28;20026;-77
2022/06/03 14:15:22;;;;;;;4.35;2.30;;;27.30;69.70;;;;;;4943040;28;20435;-78
2022/06/03 14:17:58;;;;;;;3.10;2.58;;;27.40;70.50;;;;;;4948891;28;20110;-78
2022/06/03 14:20:30;;;;;;;2.45;2.25;;;27.40;69.70;;;;;;4951378;28;20019;-77
2022/06/03 14:23:10;;;;;;;2.55;2.35;;;27.40;70.20;;;;;;4943919;28;20027;-77
2022/06/03 14:25:41;;;;;;;2.42;2.22;;;27.50;70.70;;;;;;4940033;28;20082;-80
2022/06/03 14:28:45;;;;;;;4.03;2.75;;;27.50;69.50;;;;;;4951726;28;20061;-80
2022/06/03 14:31:34;;;;;;;2.15;2.00;;;27.40;70.20;;;;;;4952344;28;20026;-79
2022/06/03 14:34:15;;;;;;;5.18;2.53;;;27.50;70.50;;;;;;4943880;28;20118;-79
2022/06/03 14:36:42;;;;;;;2.67;2.40;;;27.40;70.10;;;;;;4946881;28;20039;-81
2022/06/03 14:39:33;;;;;;;4.07;2.33;;;27.40;70.00;;;;;;4947728;28;20026;-80
2022/06/03 14:42:04;;;;;;;7.28;2.80;;;27.20;69.80;;;;;;4950767;28;20022;-79
2022/06/03 14:44:31;;;;;;;4.13;2.72;;;27.10;70.00;;;;;;4946511;28;20037;-80
2022/06/03 14:47:05;;;;;;;3.08;2.35;;;27.10;71.00;;;;;;4951853;28;20692;-79
2022/06/03 14:49:54;;;;;;;3.35;2.35;;;27.10;70.10;;;;;;4943947;28;20473;-80
2022/06/03 14:52:30;;;;;;;3.35;2.30;;;27.10;70.10;;;;;;4931280;28;20030;-80
2022/06/03 14:55:12;;;;;;;4.47;2.63;;;27.10;70.00;;;;;;4947129;28;20023;-80